createdAt,value
2022-09-25T00:00:56.347Z,13.80
2022-09-25T00:03:25.209Z,13.70
2022-09-25T00:05:52.530Z,13.70
2022-09-25T00:08:19.804Z,13.70
2022-09-25T00:10:49.886Z,13.70
2022-09-25T00:13:18.215Z,13.70
2022-09-25T00:15:49.962Z,13.70
2022-09-25T00:18:37.930Z,13.70
2022-09-25T00:21:05.461Z,13.70
2022-09-25T00:23:33.646Z,13.60
2022-09-25T00:26:01.555Z,13.60
2022-09-25T00:28:29.435Z,13.60
2022-09-25T00:30:56.573Z,13.60
2022-09-25T00:33:23.588Z,13.60
2022-09-25T00:35:50.517Z,13.50
2022-09-25T00:38:17.100Z,13.60
2022-09-25T00:40:43.659Z,13.60
2022-09-25T00:43:35.199Z,13.50
2022-09-25T00:46:04.202Z,13.50
2022-09-25T00:48:31.003Z,13.50
2022-09-25T00:50:59.657Z,13.50
2022-09-25T00:53:31.555Z,13.50
2022-09-25T00:56:00.658Z,13.60
2022-09-25T00:58:29.085Z,13.50
2022-09-25T01:00:55.762Z,13.50
2022-09-25T01:03:23.322Z,13.50
2022-09-25T01:05:50.349Z,13.50
2022-09-25T01:08:20.353Z,13.50
2022-09-25T01:10:46.872Z,13.50
2022-09-25T01:13:14.788Z,13.50
2022-09-25T01:15:55.928Z,13.50
2022-09-25T01:18:50.117Z,13.50
2022-09-25T01:21:32.806Z,13.50
2022-09-25T01:24:16.803Z,13.50
2022-09-25T01:27:06.319Z,13.40
2022-09-25T01:30:07.724Z,13.50
2022-09-25T01:32:51.468Z,13.40
2022-09-25T01:35:48.833Z,13.40
2022-09-25T01:38:33.424Z,13.40
2022-09-25T01:41:25.346Z,13.40
2022-09-25T01:44:00.537Z,13.50
2022-09-25T01:46:36.902Z,13.40
2022-09-25T01:49:10.913Z,13.40
2022-09-25T01:51:45.179Z,13.40
2022-09-25T01:54:16.987Z,13.40
2022-09-25T01:56:52.412Z,13.40
2022-09-25T01:59:30.173Z,13.40
2022-09-25T02:01:59.666Z,13.40
2022-09-25T02:04:34.299Z,13.40
2022-09-25T02:07:06.625Z,13.40
2022-09-25T02:09:40.332Z,13.40
2022-09-25T02:12:14.759Z,13.30
2022-09-25T02:14:44.792Z,13.30
2022-09-25T02:17:34.827Z,13.30
2022-09-25T02:20:20.631Z,13.20
2022-09-25T02:22:51.390Z,13.20
2022-09-25T02:25:33.204Z,13.20
2022-09-25T02:27:59.815Z,13.20
2022-09-25T02:30:26.381Z,13.20
2022-09-25T02:32:53.980Z,13.20
2022-09-25T02:35:20.878Z,13.20
2022-09-25T02:37:47.393Z,13.20
2022-09-25T02:40:14.111Z,13.20
2022-09-25T02:43:00.917Z,13.10
2022-09-25T02:45:38.591Z,13.10
2022-09-25T02:48:21.097Z,13.00
2022-09-25T02:51:20.254Z,13.10
2022-09-25T02:54:04.660Z,13.10
2022-09-25T02:56:38.264Z,13.10
2022-09-25T02:59:09.810Z,13.10
2022-09-25T03:01:39.347Z,13.20
2022-09-25T03:04:06.959Z,13.80
2022-09-25T03:06:33.794Z,13.10
2022-09-25T03:09:02.209Z,13.10
2022-09-25T03:11:28.869Z,13.10
2022-09-25T03:14:00.578Z,13.10
2022-09-25T03:16:33.597Z,13.10
2022-09-25T03:19:01.767Z,13.10
2022-09-25T03:21:28.592Z,13.20
2022-09-25T03:23:56.904Z,13.20
2022-09-25T03:26:24.882Z,13.20
2022-09-25T03:28:52.188Z,13.20
2022-09-25T03:31:18.814Z,13.20
2022-09-25T03:33:45.857Z,13.20
2022-09-25T03:36:18.905Z,13.10
2022-09-25T03:38:50.499Z,13.10
2022-09-25T03:41:22.006Z,13.10
2022-09-25T03:43:51.200Z,13.10
2022-09-25T03:46:20.488Z,13.10
2022-09-25T03:48:47.385Z,13.10
2022-09-25T03:51:14.648Z,13.10
2022-09-25T03:53:41.477Z,13.00
2022-09-25T03:56:11.908Z,13.10
2022-09-25T03:58:38.812Z,13.10
2022-09-25T04:01:06.021Z,13.10
2022-09-25T04:03:33.998Z,13.10
2022-09-25T04:06:04.815Z,13.00
2022-09-25T04:08:33.350Z,13.00
2022-09-25T04:11:00.263Z,13.00
2022-09-25T04:13:32.514Z,13.00
2022-09-25T04:16:01.292Z,13.00
2022-09-25T04:18:31.667Z,13.00
2022-09-25T04:20:59.831Z,13.00
2022-09-25T04:23:26.458Z,13.00
2022-09-25T04:25:53.722Z,13.00
2022-09-25T04:28:22.207Z,13.00
2022-09-25T04:30:49.833Z,13.00
2022-09-25T04:33:36.025Z,13.00
2022-09-25T04:36:03.180Z,13.00
2022-09-25T04:38:33.012Z,13.00
2022-09-25T04:41:01.496Z,13.00
2022-09-25T04:43:29.639Z,13.00
2022-09-25T04:46:00.076Z,13.00
2022-09-25T04:48:26.622Z,13.00
2022-09-25T04:50:53.134Z,13.00
2022-09-25T04:53:19.793Z,13.00
2022-09-25T04:55:47.263Z,13.00
2022-09-25T04:58:13.810Z,13.00
2022-09-25T05:00:40.921Z,13.00
2022-09-25T05:03:07.592Z,13.00
2022-09-25T05:05:35.180Z,12.90
2022-09-25T05:08:02.846Z,12.90
2022-09-25T05:10:31.890Z,12.90
2022-09-25T05:13:00.763Z,12.90
2022-09-25T05:15:29.202Z,12.90
2022-09-25T05:18:15.129Z,12.90
2022-09-25T05:20:41.896Z,12.90
2022-09-25T05:23:08.562Z,12.90
2022-09-25T05:25:35.305Z,12.90
2022-09-25T05:28:02.262Z,12.90
2022-09-25T05:30:31.907Z,12.80
2022-09-25T05:32:58.915Z,12.90
2022-09-25T05:35:27.692Z,12.90
2022-09-25T05:37:54.405Z,12.90
2022-09-25T05:40:21.890Z,12.80
2022-09-25T05:42:48.981Z,12.80
2022-09-25T05:45:16.869Z,12.80
2022-09-25T05:47:43.877Z,12.80
2022-09-25T05:50:13.791Z,12.80
2022-09-25T05:52:40.785Z,12.80
2022-09-25T05:55:08.410Z,12.80
2022-09-25T05:57:35.783Z,12.80
2022-09-25T06:00:05.622Z,12.80
2022-09-25T06:02:32.232Z,12.80
2022-09-25T06:04:58.902Z,12.80
2022-09-25T06:07:25.443Z,12.80
2022-09-25T06:09:52.002Z,12.70
2022-09-25T06:12:19.149Z,12.70
2022-09-25T06:14:45.684Z,12.60
2022-09-25T06:17:12.837Z,12.60
2022-09-25T06:19:39.366Z,12.60
2022-09-25T06:24:32.932Z,12.60
2022-09-25T06:26:59.450Z,12.60
2022-09-25T06:29:25.969Z,12.60
2022-09-25T06:31:53.127Z,12.50
2022-09-25T06:34:19.725Z,12.60
2022-09-25T06:36:46.305Z,12.60
2022-09-25T06:39:12.801Z,12.60
2022-09-25T06:41:40.128Z,12.60
2022-09-25T06:44:08.922Z,12.60
2022-09-25T06:46:36.505Z,12.60
2022-09-25T06:49:03.450Z,12.60
2022-09-25T06:51:34.661Z,12.60
2022-09-25T06:54:01.412Z,12.60
2022-09-25T06:56:27.970Z,12.60
2022-09-25T06:58:54.762Z,12.60
2022-09-25T07:01:21.379Z,12.60
2022-09-25T07:03:49.171Z,12.60
2022-09-25T07:06:18.665Z,12.70
2022-09-25T07:08:46.209Z,12.70
2022-09-25T07:11:21.748Z,12.60
2022-09-25T07:13:54.818Z,12.80
2022-09-25T07:16:24.298Z,12.80
2022-09-25T07:18:57.292Z,12.80
2022-09-25T07:21:25.016Z,12.90
2022-09-25T07:23:52.587Z,12.90
2022-09-25T07:26:24.558Z,12.80
2022-09-25T07:28:55.179Z,12.80
2022-09-25T07:31:24.465Z,12.70
2022-09-25T07:33:51.288Z,12.80
2022-09-25T07:36:18.577Z,12.80
2022-09-25T07:38:52.429Z,12.80
2022-09-25T07:41:22.155Z,12.80
2022-09-25T07:44:06.250Z,12.80
2022-09-25T07:46:44.164Z,12.80
2022-09-25T07:49:10.794Z,12.90
2022-09-25T07:51:37.410Z,12.90
2022-09-25T07:54:04.125Z,13.00
2022-09-25T07:56:30.959Z,12.90
2022-09-25T07:58:57.498Z,13.00
2022-09-25T08:01:24.128Z,13.00
2022-09-25T08:03:51.115Z,12.90
2022-09-25T08:06:17.650Z,13.00
2022-09-25T08:08:44.547Z,13.00
2022-09-25T08:11:13.596Z,12.90
2022-09-25T08:13:41.554Z,12.90
2022-09-25T08:16:12.106Z,13.00
2022-09-25T08:18:43.008Z,13.00
2022-09-25T08:21:10.514Z,13.00
2022-09-25T08:23:37.122Z,13.10
2022-09-25T08:26:03.816Z,13.10
2022-09-25T08:28:30.384Z,13.20
2022-09-25T08:31:01.966Z,13.00
2022-09-25T08:33:28.633Z,13.00
2022-09-25T08:36:01.413Z,13.00
2022-09-25T08:38:29.330Z,13.00
2022-09-25T08:41:10.318Z,13.00
2022-09-25T08:43:44.454Z,13.00
2022-09-25T08:46:45.532Z,13.10
2022-09-25T08:49:12.976Z,13.20
2022-09-25T08:51:44.623Z,13.20
2022-09-25T08:54:31.672Z,13.30
2022-09-25T08:57:31.296Z,13.60
2022-09-25T09:00:04.669Z,13.50
2022-09-25T09:02:45.283Z,13.60
2022-09-25T09:05:26.487Z,13.80
2022-09-25T09:08:13.367Z,13.80
2022-09-25T09:10:58.241Z,13.80
2022-09-25T09:13:30.974Z,13.80
2022-09-25T09:16:10.385Z,13.80
2022-09-25T09:18:39.470Z,13.90
2022-09-25T09:21:26.605Z,13.90
2022-09-25T09:24:10.037Z,13.90
2022-09-25T09:27:06.919Z,14.00
2022-09-25T09:29:51.789Z,14.10
2022-09-25T09:32:51.202Z,14.00
2022-09-25T09:35:42.194Z,14.00
2022-09-25T09:38:28.193Z,14.10
2022-09-25T09:41:09.633Z,14.20
2022-09-25T09:43:44.907Z,13.60
2022-09-25T09:46:25.216Z,14.40
2022-09-25T09:48:54.534Z,14.30
2022-09-25T09:51:32.302Z,14.20
2022-09-25T09:54:09.766Z,14.20
2022-09-25T09:56:37.030Z,14.20
2022-09-25T09:59:06.937Z,14.20
2022-09-25T10:01:41.444Z,14.20
2022-09-25T10:04:18.633Z,14.30
2022-09-25T10:06:50.945Z,16.80
2022-09-25T10:09:18.144Z,14.40
2022-09-25T10:11:47.173Z,14.50
2022-09-25T10:14:21.889Z,14.50
2022-09-25T10:16:53.377Z,14.50
2022-09-25T10:19:28.044Z,14.60
2022-09-25T10:22:16.425Z,14.60
2022-09-25T10:24:58.273Z,14.70
2022-09-25T10:27:32.281Z,14.80
2022-09-25T10:30:11.034Z,14.80
2022-09-25T10:32:58.323Z,14.90
2022-09-25T10:35:31.205Z,15.00
2022-09-25T10:38:00.709Z,15.00
2022-09-25T10:40:29.458Z,15.00
2022-09-25T10:43:04.971Z,15.00
2022-09-25T10:45:36.125Z,15.00
2022-09-25T10:48:51.808Z,15.10
2022-09-25T10:51:20.995Z,15.10
2022-09-25T10:53:49.464Z,15.20
2022-09-25T10:56:24.209Z,15.20
2022-09-25T10:58:59.670Z,15.20
2022-09-25T11:01:37.836Z,15.20
2022-09-25T11:04:16.329Z,15.10
2022-09-25T11:06:52.817Z,15.10
2022-09-25T11:09:22.923Z,15.10
2022-09-25T11:11:52.864Z,15.10
2022-09-25T11:14:34.801Z,15.10
2022-09-25T11:17:08.178Z,15.10
2022-09-25T11:19:38.761Z,14.80
2022-09-25T11:22:19.477Z,15.20
2022-09-25T11:25:04.534Z,15.20
2022-09-25T11:27:56.224Z,15.20
2022-09-25T11:30:23.854Z,15.20
2022-09-25T11:33:11.203Z,16.00
2022-09-25T11:36:17.915Z,15.10
2022-09-25T11:39:18.166Z,15.10
2022-09-25T11:41:48.395Z,15.10
2022-09-25T11:44:40.158Z,15.10
2022-09-25T11:47:20.023Z,15.00
2022-09-25T11:49:53.121Z,15.10
2022-09-25T11:52:40.247Z,15.10
2022-09-25T11:55:43.518Z,15.10
2022-09-25T11:58:35.112Z,15.10
2022-09-25T12:01:35.805Z,15.20
2022-09-25T12:04:44.546Z,15.20
2022-09-25T12:07:40.505Z,15.30
2022-09-25T12:10:33.620Z,14.90
2022-09-25T12:13:12.593Z,15.40
2022-09-25T12:16:02.477Z,15.50
2022-09-25T12:19:03.902Z,15.40
2022-09-25T12:21:50.697Z,15.50
2022-09-25T12:24:51.918Z,15.60
2022-09-25T12:27:42.036Z,15.60
2022-09-25T12:30:23.877Z,15.70
2022-09-25T12:33:21.919Z,15.80
2022-09-25T12:35:57.334Z,15.90
2022-09-25T12:38:41.454Z,16.00
2022-09-25T12:41:21.121Z,16.10
2022-09-25T12:44:00.445Z,16.00
2022-09-25T12:46:42.431Z,16.00
2022-09-25T12:49:23.239Z,16.00
2022-09-25T12:51:52.318Z,16.10
2022-09-25T12:54:32.158Z,16.10
2022-09-25T12:57:13.466Z,16.10
2022-09-25T12:59:53.805Z,16.10
2022-09-25T13:02:31.362Z,16.10
2022-09-25T13:05:06.720Z,16.20
2022-09-25T13:07:49.883Z,16.10
2022-09-25T13:10:22.497Z,16.10
2022-09-25T13:12:49.905Z,16.10
2022-09-25T13:15:23.707Z,16.00
2022-09-25T13:17:50.367Z,16.10
2022-09-25T13:20:29.594Z,16.10
2022-09-25T13:23:09.183Z,16.10
2022-09-25T13:26:00.835Z,16.10
2022-09-25T13:28:34.220Z,16.20
2022-09-25T13:31:13.020Z,16.20
2022-09-25T13:33:50.226Z,16.20
2022-09-25T13:36:38.752Z,16.10
2022-09-25T13:39:35.534Z,16.30
2022-09-25T13:42:07.541Z,16.10
2022-09-25T13:44:41.076Z,16.10
2022-09-25T13:47:25.474Z,16.10
2022-09-25T13:50:07.447Z,16.20
2022-09-25T13:52:39.842Z,16.20
2022-09-25T13:55:21.947Z,16.20
2022-09-25T13:57:58.227Z,16.30
2022-09-25T14:00:36.617Z,16.50
2022-09-25T14:03:03.553Z,16.30
2022-09-25T14:05:36.038Z,16.30
2022-09-25T14:08:09.333Z,16.30
2022-09-25T14:10:36.208Z,16.40
2022-09-25T14:13:07.011Z,16.50
2022-09-25T14:15:38.705Z,16.40
2022-09-25T14:18:08.990Z,16.40
2022-09-25T14:20:38.135Z,16.40
2022-09-25T14:23:26.068Z,16.40
2022-09-25T14:26:07.078Z,16.40
2022-09-25T14:28:43.791Z,16.50
2022-09-25T14:31:32.263Z,16.50
2022-09-25T14:34:17.555Z,16.50
2022-09-25T14:37:04.122Z,16.50
2022-09-25T14:40:13.925Z,16.60
2022-09-25T14:42:52.110Z,16.60
2022-09-25T14:46:20.186Z,16.60
2022-09-25T14:48:57.073Z,16.60
2022-09-25T14:51:29.157Z,16.50
2022-09-25T14:54:00.559Z,16.50
2022-09-25T14:56:31.711Z,16.50
2022-09-25T14:59:00.914Z,16.50
2022-09-25T15:01:32.237Z,16.50
2022-09-25T15:04:05.465Z,16.50
2022-09-25T15:06:34.879Z,16.40
2022-09-25T15:09:02.790Z,16.40
2022-09-25T15:11:43.355Z,16.40
2022-09-25T15:14:20.631Z,16.40
2022-09-25T15:17:06.982Z,16.30
2022-09-25T15:19:45.394Z,16.40
2022-09-25T15:22:23.392Z,16.20
2022-09-25T15:24:54.801Z,16.20
2022-09-25T15:27:22.794Z,16.30
2022-09-25T15:29:50.659Z,16.20
2022-09-25T15:32:39.485Z,16.20
2022-09-25T15:35:10.594Z,16.30
2022-09-25T15:37:39.287Z,16.20
2022-09-25T15:40:22.826Z,16.30
2022-09-25T15:42:50.542Z,16.30
2022-09-25T15:45:32.510Z,16.20
2022-09-25T15:48:00.933Z,16.30
2022-09-25T15:50:29.223Z,16.30
2022-09-25T15:52:59.353Z,16.30
2022-09-25T15:55:28.168Z,16.30
2022-09-25T15:58:03.852Z,16.30
2022-09-25T16:00:48.957Z,16.30
2022-09-25T16:03:43.526Z,16.30
2022-09-25T16:06:15.282Z,16.20
2022-09-25T16:08:41.987Z,16.30
2022-09-25T16:11:09.211Z,16.40
2022-09-25T16:13:40.405Z,16.30
2022-09-25T16:16:26.289Z,16.30
2022-09-25T16:18:54.556Z,16.30
2022-09-25T16:21:30.010Z,16.20
2022-09-25T16:24:06.459Z,16.20
2022-09-25T16:26:42.791Z,16.10
2022-09-25T16:29:12.434Z,16.00
2022-09-25T16:31:43.674Z,15.90
2022-09-25T16:34:29.437Z,15.90
2022-09-25T16:37:00.538Z,15.90
2022-09-25T16:39:31.868Z,15.80
2022-09-25T16:41:59.898Z,15.90
2022-09-25T16:44:32.641Z,16.00
2022-09-25T16:46:59.247Z,16.10
2022-09-25T16:49:26.455Z,16.00
2022-09-25T16:51:55.244Z,16.00
2022-09-25T16:54:28.098Z,15.90
2022-09-25T16:56:57.050Z,15.80
2022-09-25T16:59:26.154Z,15.70
2022-09-25T17:01:55.895Z,15.70
2022-09-25T17:04:26.063Z,15.70
2022-09-25T17:06:54.183Z,15.60
2022-09-25T17:09:20.709Z,15.50
2022-09-25T17:11:50.104Z,15.70
2022-09-25T17:14:23.063Z,15.50
2022-09-25T17:16:51.304Z,15.50
2022-09-25T17:19:19.168Z,15.40
2022-09-25T17:21:51.153Z,15.30
2022-09-25T17:25:20.326Z,15.30
2022-09-25T17:27:46.863Z,15.20
2022-09-25T17:30:13.751Z,15.20
2022-09-25T17:32:44.655Z,15.10
2022-09-25T17:35:37.843Z,15.00
2022-09-25T17:38:04.894Z,15.00
2022-09-25T17:40:33.171Z,14.90
2022-09-25T17:43:00.558Z,14.80
2022-09-25T17:45:36.598Z,14.70
2022-09-25T17:48:03.591Z,14.70
2022-09-25T17:50:31.587Z,14.60
2022-09-25T17:52:58.878Z,14.60
2022-09-25T17:55:25.685Z,14.40
2022-09-25T17:57:52.236Z,14.30
2022-09-25T18:00:18.880Z,14.20
2022-09-25T18:02:45.571Z,14.10
2022-09-25T18:05:18.150Z,14.00
2022-09-25T18:07:45.006Z,14.00
2022-09-25T18:10:12.961Z,14.00
2022-09-25T18:12:39.610Z,13.90
2022-09-25T18:15:06.688Z,13.90
2022-09-25T18:17:33.239Z,13.80
2022-09-25T18:20:18.388Z,13.70
2022-09-25T18:22:44.945Z,13.70
2022-09-25T18:25:11.531Z,13.70
2022-09-25T18:27:41.582Z,13.60
2022-09-25T18:30:15.278Z,13.60
2022-09-25T18:32:41.995Z,13.50
2022-09-25T18:35:09.233Z,13.40
2022-09-25T18:37:36.045Z,13.40
2022-09-25T18:40:04.504Z,13.30
2022-09-25T18:42:31.157Z,13.30
2022-09-25T18:44:57.678Z,13.30
2022-09-25T18:47:24.312Z,13.20
2022-09-25T18:49:50.944Z,13.10
2022-09-25T18:52:17.563Z,13.10
2022-09-25T18:54:44.437Z,13.00
2022-09-25T18:57:11.968Z,13.10
2022-09-25T18:59:39.690Z,13.00
2022-09-25T19:02:07.596Z,13.00
2022-09-25T19:04:35.959Z,13.00
2022-09-25T19:07:02.549Z,12.90
2022-09-25T19:09:29.123Z,12.90
2022-09-25T19:11:55.686Z,12.90
2022-09-25T19:14:23.876Z,12.80
2022-09-25T19:16:53.306Z,12.70
2022-09-25T19:19:19.913Z,12.70
2022-09-25T19:21:46.611Z,12.70
2022-09-25T19:24:13.159Z,12.60
2022-09-25T19:26:41.503Z,12.60
2022-09-25T19:29:08.447Z,12.50
2022-09-25T19:31:35.333Z,12.40
2022-09-25T19:34:02.829Z,12.40
2022-09-25T19:36:32.223Z,12.30
2022-09-25T19:39:00.015Z,12.20
2022-09-25T19:41:35.036Z,12.10
2022-09-25T19:44:12.602Z,12.10
2022-09-25T19:46:41.505Z,12.10
2022-09-25T19:49:08.426Z,12.00
2022-09-25T19:51:35.126Z,12.00
2022-09-25T19:54:01.743Z,12.00
2022-09-25T19:56:28.274Z,11.90
2022-09-25T19:58:55.263Z,11.90
2022-09-25T20:01:25.984Z,11.90
2022-09-25T20:03:55.519Z,11.80
2022-09-25T20:06:23.106Z,11.70
2022-09-25T20:08:49.666Z,11.80
2022-09-25T20:11:23.357Z,11.50
2022-09-25T20:13:51.514Z,11.50
2022-09-25T20:16:20.867Z,11.50
2022-09-25T20:18:48.971Z,11.40
2022-09-25T20:21:17.454Z,11.30
2022-09-25T20:23:44.181Z,11.20
2022-09-25T20:26:13.514Z,11.20
2022-09-25T20:28:41.461Z,11.10
2022-09-25T20:31:11.092Z,11.10
2022-09-25T20:33:38.391Z,11.00
2022-09-25T20:36:06.939Z,11.00
2022-09-25T20:38:36.773Z,10.90
2022-09-25T20:41:05.692Z,10.90
2022-09-25T20:43:32.603Z,10.90
2022-09-25T20:46:03.787Z,10.90
2022-09-25T20:48:31.821Z,10.80
2022-09-25T20:50:58.675Z,10.80
2022-09-25T20:53:25.637Z,10.70
2022-09-25T20:55:52.686Z,10.70
2022-09-25T20:58:19.450Z,10.70
2022-09-25T21:00:46.277Z,10.70
2022-09-25T21:03:12.974Z,10.60
2022-09-25T21:05:40.725Z,10.50
2022-09-25T21:08:07.363Z,9.00
2022-09-25T21:10:40.356Z,10.40
2022-09-25T21:13:07.250Z,10.40
2022-09-25T21:15:34.106Z,10.30
2022-09-25T21:18:01.334Z,7.60
2022-09-25T21:20:28.363Z,10.20
2022-09-25T21:22:54.994Z,10.20
2022-09-25T21:25:21.715Z,10.10
2022-09-25T21:27:48.269Z,10.10
2022-09-25T21:30:15.119Z,10.00
2022-09-25T21:32:41.675Z,10.00
2022-09-25T21:35:08.710Z,10.00
2022-09-25T21:37:35.303Z,9.90
2022-09-25T21:40:02.073Z,9.90
2022-09-25T21:42:29.863Z,9.90
2022-09-25T21:44:57.570Z,9.90
2022-09-25T21:47:24.143Z,9.90
2022-09-25T21:49:50.885Z,9.80
2022-09-25T21:52:17.401Z,9.80
2022-09-25T21:54:44.011Z,9.80
2022-09-25T21:57:10.532Z,9.70
2022-09-25T21:59:37.040Z,9.70
2022-09-25T22:02:03.563Z,9.60
2022-09-25T22:04:30.079Z,9.60
2022-09-25T22:06:58.151Z,9.60
2022-09-25T22:09:25.367Z,9.50
2022-09-25T22:11:52.133Z,9.50
2022-09-25T22:14:20.468Z,9.50
2022-09-25T22:16:49.413Z,9.50
2022-09-25T22:19:21.674Z,9.50
2022-09-25T22:21:50.683Z,9.50
2022-09-25T22:24:17.474Z,9.50
2022-09-25T22:26:45.878Z,9.40
2022-09-25T22:29:13.659Z,9.40
2022-09-25T22:31:44.008Z,9.40
2022-09-25T22:34:14.994Z,9.40
2022-09-25T22:36:41.526Z,9.40
2022-09-25T22:39:08.204Z,9.40
2022-09-25T22:41:34.784Z,9.30
2022-09-25T22:44:03.282Z,9.30
2022-09-25T22:46:29.905Z,9.30
2022-09-25T22:48:56.762Z,9.30
2022-09-25T22:51:24.918Z,11.60
2022-09-25T22:53:52.891Z,9.20
2022-09-25T22:56:22.714Z,9.20
2022-09-25T22:58:55.581Z,9.20
2022-09-25T23:01:29.261Z,9.20
2022-09-25T23:03:58.321Z,9.20
2022-09-25T23:06:26.339Z,9.20
2022-09-25T23:08:58.299Z,9.10
2022-09-25T23:11:25.284Z,9.10
2022-09-25T23:14:07.272Z,9.10
2022-09-25T23:16:34.543Z,9.10
2022-09-25T23:19:01.946Z,9.10
2022-09-25T23:21:30.199Z,9.10
2022-09-25T23:23:58.403Z,9.00
2022-09-25T23:26:25.867Z,9.10
2022-09-25T23:28:52.541Z,9.00
2022-09-25T23:31:20.123Z,9.00
2022-09-25T23:33:47.073Z,9.00
2022-09-25T23:36:20.151Z,8.90
2022-09-25T23:38:48.003Z,8.90
2022-09-25T23:41:18.507Z,8.90
2022-09-25T23:43:46.497Z,8.90
2022-09-25T23:46:15.441Z,11.30
2022-09-25T23:48:43.510Z,8.90
2022-09-25T23:51:10.985Z,8.80
2022-09-25T23:53:37.977Z,8.80
2022-09-25T23:56:09.668Z,8.80
2022-09-25T23:58:36.379Z,8.80
